sensor_id;sensor_type;location;lat;lon;timestamp;temperature;humidity
75010;DHT22;63564;46.840;18.336;2023-07-09T00:00:51;16.18;90.13
75010;DHT22;63564;46.840;18.336;2023-07-09T00:03:51;16.25;90.08
75010;DHT22;63564;46.840;18.336;2023-07-09T00:06:54;16.37;89.26
75010;DHT22;63564;46.840;18.336;2023-07-09T00:09:56;16.22;90.85
75010;DHT22;63564;46.840;18.336;2023-07-09T00:12:57;16.29;90.90
75010;DHT22;63564;46.840;18.336;2023-07-09T00:16:00;16.27;91.64
75010;DHT22;63564;46.840;18.336;2023-07-09T00:19:01;16.45;90.65
75010;DHT22;63564;46.840;18.336;2023-07-09T00:22:02;16.61;89.50
75010;DHT22;63564;46.840;18.336;2023-07-09T00:25:02;16.75;87.02
75010;DHT22;63564;46.840;18.336;2023-07-09T00:28:04;16.84;85.90
75010;DHT22;63564;46.840;18.336;2023-07-09T00:31:06;16.93;85.26
75010;DHT22;63564;46.840;18.336;2023-07-09T00:34:12;16.99;84.74
75010;DHT22;63564;46.840;18.336;2023-07-09T00:37:14;17.07;83.53
75010;DHT22;63564;46.840;18.336;2023-07-09T00:40:21;17.10;83.66
75010;DHT22;63564;46.840;18.336;2023-07-09T00:43:22;17.20;83.24
75010;DHT22;63564;46.840;18.336;2023-07-09T00:49:28;17.28;82.91
75010;DHT22;63564;46.840;18.336;2023-07-09T00:52:33;17.17;83.65
75010;DHT22;63564;46.840;18.336;2023-07-09T00:55:39;17.11;83.67
75010;DHT22;63564;46.840;18.336;2023-07-09T00:58:43;17.10;83.69
75010;DHT22;63564;46.840;18.336;2023-07-09T01:01:47;17.04;83.99
75010;DHT22;63564;46.840;18.336;2023-07-09T01:04:51;17.06;83.89
75010;DHT22;63564;46.840;18.336;2023-07-09T01:07:54;17.06;83.77
75010;DHT22;63564;46.840;18.336;2023-07-09T01:10:54;17.16;83.39
75010;DHT22;63564;46.840;18.336;2023-07-09T01:13:56;17.09;84.21
75010;DHT22;63564;46.840;18.336;2023-07-09T01:17:01;17.06;84.42
75010;DHT22;63564;46.840;18.336;2023-07-09T01:20:02;17.00;84.34
75010;DHT22;63564;46.840;18.336;2023-07-09T01:23:03;16.84;86.57
75010;DHT22;63564;46.840;18.336;2023-07-09T01:26:06;16.52;89.77
75010;DHT22;63564;46.840;18.336;2023-07-09T01:29:07;16.42;89.79
75010;DHT22;63564;46.840;18.336;2023-07-09T01:32:08;16.32;89.28
75010;DHT22;63564;46.840;18.336;2023-07-09T01:35:09;16.27;89.78
75010;DHT22;63564;46.840;18.336;2023-07-09T01:38:11;16.28;90.95
75010;DHT22;63564;46.840;18.336;2023-07-09T01:41:12;16.00;91.63
75010;DHT22;63564;46.840;18.336;2023-07-09T01:44:14;15.99;89.99
75010;DHT22;63564;46.840;18.336;2023-07-09T01:47:14;16.07;89.37
75010;DHT22;63564;46.840;18.336;2023-07-09T01:50:15;16.08;88.75
75010;DHT22;63564;46.840;18.336;2023-07-09T01:53:19;16.14;87.26
75010;DHT22;63564;46.840;18.336;2023-07-09T01:56:23;16.13;87.17
75010;DHT22;63564;46.840;18.336;2023-07-09T01:59:24;16.10;86.81
75010;DHT22;63564;46.840;18.336;2023-07-09T02:02:25;16.13;87.50
75010;DHT22;63564;46.840;18.336;2023-07-09T02:05:26;16.08;87.12
75010;DHT22;63564;46.840;18.336;2023-07-09T02:08:26;16.03;88.59
75010;DHT22;63564;46.840;18.336;2023-07-09T02:11:26;16.07;87.86
75010;DHT22;63564;46.840;18.336;2023-07-09T02:14:27;16.21;85.97
75010;DHT22;63564;46.840;18.336;2023-07-09T02:17:27;16.28;85.34
75010;DHT22;63564;46.840;18.336;2023-07-09T02:20:28;16.31;86.06
75010;DHT22;63564;46.840;18.336;2023-07-09T02:23:28;16.34;85.12
75010;DHT22;63564;46.840;18.336;2023-07-09T02:26:29;16.32;85.50
75010;DHT22;63564;46.840;18.336;2023-07-09T02:29:29;15.96;90.07
75010;DHT22;63564;46.840;18.336;2023-07-09T02:32:30;15.80;90.68
75010;DHT22;63564;46.840;18.336;2023-07-09T02:35:30;15.52;91.64
75010;DHT22;63564;46.840;18.336;2023-07-09T02:38:30;15.56;91.80
75010;DHT22;63564;46.840;18.336;2023-07-09T02:41:31;15.21;92.65
75010;DHT22;63564;46.840;18.336;2023-07-09T02:44:31;15.07;93.85
75010;DHT22;63564;46.840;18.336;2023-07-09T02:47:32;15.05;93.76
75010;DHT22;63564;46.840;18.336;2023-07-09T02:50:32;14.87;93.55
75010;DHT22;63564;46.840;18.336;2023-07-09T02:53:32;14.87;93.89
75010;DHT22;63564;46.840;18.336;2023-07-09T02:56:33;14.94;93.15
75010;DHT22;63564;46.840;18.336;2023-07-09T02:59:33;14.87;93.58
75010;DHT22;63564;46.840;18.336;2023-07-09T03:02:34;14.76;93.72
75010;DHT22;63564;46.840;18.336;2023-07-09T03:05:35;14.83;93.09
75010;DHT22;63564;46.840;18.336;2023-07-09T03:08:35;14.91;92.49
75010;DHT22;63564;46.840;18.336;2023-07-09T03:11:36;14.97;91.99
75010;DHT22;63564;46.840;18.336;2023-07-09T03:14:36;15.04;91.58
75010;DHT22;63564;46.840;18.336;2023-07-09T03:17:36;15.14;90.23
75010;DHT22;63564;46.840;18.336;2023-07-09T03:20:37;15.15;90.87
75010;DHT22;63564;46.840;18.336;2023-07-09T03:23:38;15.18;91.30
75010;DHT22;63564;46.840;18.336;2023-07-09T03:26:39;15.04;92.88
75010;DHT22;63564;46.840;18.336;2023-07-09T03:29:39;14.93;93.79
75010;DHT22;63564;46.840;18.336;2023-07-09T03:32:39;14.90;93.50
75010;DHT22;63564;46.840;18.336;2023-07-09T03:35:40;14.95;93.07
75010;DHT22;63564;46.840;18.336;2023-07-09T03:38:41;15.07;92.84
75010;DHT22;63564;46.840;18.336;2023-07-09T03:41:41;15.14;92.14
75010;DHT22;63564;46.840;18.336;2023-07-09T03:44:42;15.24;91.67
75010;DHT22;63564;46.840;18.336;2023-07-09T03:47:42;15.32;91.61
75010;DHT22;63564;46.840;18.336;2023-07-09T03:50:44;15.41;91.41
75010;DHT22;63564;46.840;18.336;2023-07-09T03:53:45;15.49;91.31
75010;DHT22;63564;46.840;18.336;2023-07-09T03:56:45;15.63;90.84
75010;DHT22;63564;46.840;18.336;2023-07-09T03:59:46;15.79;90.22
75010;DHT22;63564;46.840;18.336;2023-07-09T04:02:46;15.86;90.11
75010;DHT22;63564;46.840;18.336;2023-07-09T04:05:47;15.97;90.17
75010;DHT22;63564;46.840;18.336;2023-07-09T04:08:48;16.07;90.05
75010;DHT22;63564;46.840;18.336;2023-07-09T04:11:49;16.28;89.97
75010;DHT22;63564;46.840;18.336;2023-07-09T04:14:49;16.35;90.16
75010;DHT22;63564;46.840;18.336;2023-07-09T04:17:50;16.34;90.67
75010;DHT22;63564;46.840;18.336;2023-07-09T04:20:52;16.41;90.19
75010;DHT22;63564;46.840;18.336;2023-07-09T04:23:52;16.52;90.29
75010;DHT22;63564;46.840;18.336;2023-07-09T04:26:53;16.71;89.99
75010;DHT22;63564;46.840;18.336;2023-07-09T04:29:56;16.86;89.78
75010;DHT22;63564;46.840;18.336;2023-07-09T04:32:57;17.11;89.30
75010;DHT22;63564;46.840;18.336;2023-07-09T04:35:57;17.32;88.28
75010;DHT22;63564;46.840;18.336;2023-07-09T04:38:58;17.42;87.96
75010;DHT22;63564;46.840;18.336;2023-07-09T04:41:58;17.57;87.91
75010;DHT22;63564;46.840;18.336;2023-07-09T04:44:59;17.61;87.56
75010;DHT22;63564;46.840;18.336;2023-07-09T04:47:59;17.64;87.73
75010;DHT22;63564;46.840;18.336;2023-07-09T04:51:00;17.69;87.79
75010;DHT22;63564;46.840;18.336;2023-07-09T04:54:00;17.76;87.83
75010;DHT22;63564;46.840;18.336;2023-07-09T04:57:03;17.82;87.88
75010;DHT22;63564;46.840;18.336;2023-07-09T05:00:04;17.92;87.95
75010;DHT22;63564;46.840;18.336;2023-07-09T05:03:05;18.05;87.73
75010;DHT22;63564;46.840;18.336;2023-07-09T05:06:05;18.14;87.57
75010;DHT22;63564;46.840;18.336;2023-07-09T05:09:06;18.34;87.00
75010;DHT22;63564;46.840;18.336;2023-07-09T05:12:07;18.48;86.30
75010;DHT22;63564;46.840;18.336;2023-07-09T05:15:08;18.71;85.91
75010;DHT22;63564;46.840;18.336;2023-07-09T05:18:09;18.91;85.30
75010;DHT22;63564;46.840;18.336;2023-07-09T05:21:09;19.06;84.89
75010;DHT22;63564;46.840;18.336;2023-07-09T05:24:10;19.19;84.88
75010;DHT22;63564;46.840;18.336;2023-07-09T05:27:10;19.36;84.62
75010;DHT22;63564;46.840;18.336;2023-07-09T05:30:11;19.56;84.32
75010;DHT22;63564;46.840;18.336;2023-07-09T05:33:11;19.74;84.00
75010;DHT22;63564;46.840;18.336;2023-07-09T05:36:12;19.85;83.73
75010;DHT22;63564;46.840;18.336;2023-07-09T05:39:15;20.05;83.14
75010;DHT22;63564;46.840;18.336;2023-07-09T05:42:16;20.26;82.65
75010;DHT22;63564;46.840;18.336;2023-07-09T05:45:16;20.49;81.86
75010;DHT22;63564;46.840;18.336;2023-07-09T05:48:17;20.64;81.80
75010;DHT22;63564;46.840;18.336;2023-07-09T05:51:17;20.80;80.58
75010;DHT22;63564;46.840;18.336;2023-07-09T05:54:18;20.94;80.03
75010;DHT22;63564;46.840;18.336;2023-07-09T05:57:19;21.16;79.50
75010;DHT22;63564;46.840;18.336;2023-07-09T06:00:19;21.25;80.30
75010;DHT22;63564;46.840;18.336;2023-07-09T06:03:22;21.31;79.46
75010;DHT22;63564;46.840;18.336;2023-07-09T06:06:22;21.57;77.43
75010;DHT22;63564;46.840;18.336;2023-07-09T06:09:23;21.80;76.99
75010;DHT22;63564;46.840;18.336;2023-07-09T06:12:24;22.05;76.72
75010;DHT22;63564;46.840;18.336;2023-07-09T06:15:25;22.28;76.34
75010;DHT22;63564;46.840;18.336;2023-07-09T06:18:26;22.48;75.34
75010;DHT22;63564;46.840;18.336;2023-07-09T06:21:30;22.66;76.00
75010;DHT22;63564;46.840;18.336;2023-07-09T06:24:30;22.85;75.60
75010;DHT22;63564;46.840;18.336;2023-07-09T06:27:31;23.07;75.30
75010;DHT22;63564;46.840;18.336;2023-07-09T06:30:31;23.20;75.67
75010;DHT22;63564;46.840;18.336;2023-07-09T06:33:32;23.34;75.68
75010;DHT22;63564;46.840;18.336;2023-07-09T06:36:32;23.52;75.43
75010;DHT22;63564;46.840;18.336;2023-07-09T06:39:33;23.65;74.10
75010;DHT22;63564;46.840;18.336;2023-07-09T06:42:33;23.80;72.65
75010;DHT22;63564;46.840;18.336;2023-07-09T06:45:33;24.00;70.92
75010;DHT22;63564;46.840;18.336;2023-07-09T06:48:34;24.18;69.52
75010;DHT22;63564;46.840;18.336;2023-07-09T06:51:34;24.30;69.86
75010;DHT22;63564;46.840;18.336;2023-07-09T06:54:35;24.36;69.50
75010;DHT22;63564;46.840;18.336;2023-07-09T06:57:35;24.47;67.27
75010;DHT22;63564;46.840;18.336;2023-07-09T07:00:36;24.50;68.42
75010;DHT22;63564;46.840;18.336;2023-07-09T07:03:37;24.54;64.46
75010;DHT22;63564;46.840;18.336;2023-07-09T07:06:37;24.71;60.71
75010;DHT22;63564;46.840;18.336;2023-07-09T07:09:37;24.91;58.16
75010;DHT22;63564;46.840;18.336;2023-07-09T07:12:43;25.06;60.29
75010;DHT22;63564;46.840;18.336;2023-07-09T07:15:48;25.29;59.00
75010;DHT22;63564;46.840;18.336;2023-07-09T07:18:49;25.36;60.15
75010;DHT22;63564;46.840;18.336;2023-07-09T07:21:50;25.63;60.89
75010;DHT22;63564;46.840;18.336;2023-07-09T07:24:50;25.58;59.88
75010;DHT22;63564;46.840;18.336;2023-07-09T07:27:51;25.64;57.91
75010;DHT22;63564;46.840;18.336;2023-07-09T07:31:08;25.82;57.08
75010;DHT22;63564;46.840;18.336;2023-07-09T07:34:08;25.74;56.69
75010;DHT22;63564;46.840;18.336;2023-07-09T07:37:08;25.82;58.07
75010;DHT22;63564;46.840;18.336;2023-07-09T07:40:09;25.86;58.89
75010;DHT22;63564;46.840;18.336;2023-07-09T07:43:10;25.85;55.41
75010;DHT22;63564;46.840;18.336;2023-07-09T07:46:10;25.98;52.12
75010;DHT22;63564;46.840;18.336;2023-07-09T07:49:11;26.29;53.85
75010;DHT22;63564;46.840;18.336;2023-07-09T07:52:12;26.01;55.69
75010;DHT22;63564;46.840;18.336;2023-07-09T07:55:12;26.39;51.02
75010;DHT22;63564;46.840;18.336;2023-07-09T07:58:13;26.37;52.25
75010;DHT22;63564;46.840;18.336;2023-07-09T08:01:13;26.46;53.80
75010;DHT22;63564;46.840;18.336;2023-07-09T08:04:14;26.54;53.55
75010;DHT22;63564;46.840;18.336;2023-07-09T08:07:14;26.80;50.49
75010;DHT22;63564;46.840;18.336;2023-07-09T08:10:15;26.86;51.70
75010;DHT22;63564;46.840;18.336;2023-07-09T08:13:16;26.65;54.02
75010;DHT22;63564;46.840;18.336;2023-07-09T08:16:16;26.63;50.73
75010;DHT22;63564;46.840;18.336;2023-07-09T08:19:18;26.70;51.75
75010;DHT22;63564;46.840;18.336;2023-07-09T08:22:19;26.78;54.78
75010;DHT22;63564;46.840;18.336;2023-07-09T08:25:23;26.98;46.65
75010;DHT22;63564;46.840;18.336;2023-07-09T08:28:23;27.36;48.35
75010;DHT22;63564;46.840;18.336;2023-07-09T08:31:24;27.35;50.16
75010;DHT22;63564;46.840;18.336;2023-07-09T08:34:24;27.46;47.15
75010;DHT22;63564;46.840;18.336;2023-07-09T08:37:25;27.64;47.03
75010;DHT22;63564;46.840;18.336;2023-07-09T08:40:25;27.71;45.72
75010;DHT22;63564;46.840;18.336;2023-07-09T08:49:59;27.32;47.05
75010;DHT22;63564;46.840;18.336;2023-07-09T08:53:01;27.39;45.71
75010;DHT22;63564;46.840;18.336;2023-07-09T08:56:02;27.52;46.78
75010;DHT22;63564;46.840;18.336;2023-07-09T08:59:03;27.57;48.10
75010;DHT22;63564;46.840;18.336;2023-07-09T09:02:05;27.77;45.12
75010;DHT22;63564;46.840;18.336;2023-07-09T09:05:18;27.97;48.43
75010;DHT22;63564;46.840;18.336;2023-07-09T09:11:45;27.90;45.10
75010;DHT22;63564;46.840;18.336;2023-07-09T09:14:54;27.79;45.52
75010;DHT22;63564;46.840;18.336;2023-07-09T09:18:09;28.02;45.02
75010;DHT22;63564;46.840;18.336;2023-07-09T09:21:23;28.08;46.20
75010;DHT22;63564;46.840;18.336;2023-07-09T09:27:34;27.83;46.01
75010;DHT22;63564;46.840;18.336;2023-07-09T09:30:34;28.21;49.28
75010;DHT22;63564;46.840;18.336;2023-07-09T09:33:43;28.34;49.80
75010;DHT22;63564;46.840;18.336;2023-07-09T09:36:44;28.27;47.62
75010;DHT22;63564;46.840;18.336;2023-07-09T09:39:45;28.28;45.25
75010;DHT22;63564;46.840;18.336;2023-07-09T09:42:46;28.51;47.32
75010;DHT22;63564;46.840;18.336;2023-07-09T09:45:48;28.53;45.40
75010;DHT22;63564;46.840;18.336;2023-07-09T09:48:52;28.29;46.08
75010;DHT22;63564;46.840;18.336;2023-07-09T09:51:54;28.39;43.74
75010;DHT22;63564;46.840;18.336;2023-07-09T09:55:03;28.66;48.28
75010;DHT22;63564;46.840;18.336;2023-07-09T09:58:14;28.60;45.51
75010;DHT22;63564;46.840;18.336;2023-07-09T10:01:17;29.04;46.61
75010;DHT22;63564;46.840;18.336;2023-07-09T10:04:19;28.96;48.31
75010;DHT22;63564;46.840;18.336;2023-07-09T10:07:29;28.94;46.10
75010;DHT22;63564;46.840;18.336;2023-07-09T10:10:32;29.23;44.89
75010;DHT22;63564;46.840;18.336;2023-07-09T10:13:37;29.07;44.87
75010;DHT22;63564;46.840;18.336;2023-07-09T10:16:44;29.07;46.74
75010;DHT22;63564;46.840;18.336;2023-07-09T10:19:59;29.37;40.67
75010;DHT22;63564;46.840;18.336;2023-07-09T10:27:00;29.24;42.31
75010;DHT22;63564;46.840;18.336;2023-07-09T10:33:33;29.20;45.19
75010;DHT22;63564;46.840;18.336;2023-07-09T10:36:57;29.41;48.71
75010;DHT22;63564;46.840;18.336;2023-07-09T10:40:02;29.20;46.80
75010;DHT22;63564;46.840;18.336;2023-07-09T10:43:05;29.65;43.95
75010;DHT22;63564;46.840;18.336;2023-07-09T10:46:13;29.71;42.85
75010;DHT22;63564;46.840;18.336;2023-07-09T10:49:15;29.44;45.54
75010;DHT22;63564;46.840;18.336;2023-07-09T10:52:20;29.72;43.77
75010;DHT22;63564;46.840;18.336;2023-07-09T10:55:32;29.34;52.10
75010;DHT22;63564;46.840;18.336;2023-07-09T11:01:54;30.12;40.66
75010;DHT22;63564;46.840;18.336;2023-07-09T11:05:01;29.68;51.60
75010;DHT22;63564;46.840;18.336;2023-07-09T11:08:06;29.50;43.58
75010;DHT22;63564;46.840;18.336;2023-07-09T11:11:17;29.69;43.14
75010;DHT22;63564;46.840;18.336;2023-07-09T11:14:36;29.65;43.19
75010;DHT22;63564;46.840;18.336;2023-07-09T11:17:40;30.06;40.26
75010;DHT22;63564;46.840;18.336;2023-07-09T11:20:44;29.72;41.16
75010;DHT22;63564;46.840;18.336;2023-07-09T11:23:52;30.05;42.38
75010;DHT22;63564;46.840;18.336;2023-07-09T11:26:54;29.63;39.88
75010;DHT22;63564;46.840;18.336;2023-07-09T11:33:02;29.90;40.10
75010;DHT22;63564;46.840;18.336;2023-07-09T11:36:22;29.88;42.89
75010;DHT22;63564;46.840;18.336;2023-07-09T11:42:48;30.23;39.50
75010;DHT22;63564;46.840;18.336;2023-07-09T11:45:49;30.57;41.45
75010;DHT22;63564;46.840;18.336;2023-07-09T11:48:50;30.33;38.38
75010;DHT22;63564;46.840;18.336;2023-07-09T11:51:56;30.81;37.52
75010;DHT22;63564;46.840;18.336;2023-07-09T11:58:16;31.10;38.25
75010;DHT22;63564;46.840;18.336;2023-07-09T12:01:23;30.85;36.36
75010;DHT22;63564;46.840;18.336;2023-07-09T12:04:32;31.00;37.06
75010;DHT22;63564;46.840;18.336;2023-07-09T12:07:34;30.78;37.21
75010;DHT22;63564;46.840;18.336;2023-07-09T12:10:36;31.30;36.87
75010;DHT22;63564;46.840;18.336;2023-07-09T12:13:37;31.16;40.13
75010;DHT22;63564;46.840;18.336;2023-07-09T12:16:40;31.18;38.40
75010;DHT22;63564;46.840;18.336;2023-07-09T12:19:41;31.47;37.94
75010;DHT22;63564;46.840;18.336;2023-07-09T12:22:41;31.25;38.30
75010;DHT22;63564;46.840;18.336;2023-07-09T12:25:48;31.50;37.98
75010;DHT22;63564;46.840;18.336;2023-07-09T12:28:57;31.87;35.24
75010;DHT22;63564;46.840;18.336;2023-07-09T12:32:00;31.92;36.26
75010;DHT22;63564;46.840;18.336;2023-07-09T12:35:02;31.19;38.36
75010;DHT22;63564;46.840;18.336;2023-07-09T12:38:04;31.84;35.67
75010;DHT22;63564;46.840;18.336;2023-07-09T12:41:27;31.75;43.38
75010;DHT22;63564;46.840;18.336;2023-07-09T12:44:31;31.20;37.37
75010;DHT22;63564;46.840;18.336;2023-07-09T12:47:34;31.20;35.48
75010;DHT22;63564;46.840;18.336;2023-07-09T12:50:35;31.94;37.06
75010;DHT22;63564;46.840;18.336;2023-07-09T12:53:36;32.12;37.59
75010;DHT22;63564;46.840;18.336;2023-07-09T12:56:37;32.21;36.04
75010;DHT22;63564;46.840;18.336;2023-07-09T12:59:40;32.57;34.84
75010;DHT22;63564;46.840;18.336;2023-07-09T13:02:41;32.22;36.55
75010;DHT22;63564;46.840;18.336;2023-07-09T13:05:54;32.16;34.95
75010;DHT22;63564;46.840;18.336;2023-07-09T13:08:57;31.91;34.68
75010;DHT22;63564;46.840;18.336;2023-07-09T13:11:58;32.28;36.24
75010;DHT22;63564;46.840;18.336;2023-07-09T13:15:00;32.48;33.65
75010;DHT22;63564;46.840;18.336;2023-07-09T13:18:05;33.46;33.50
75010;DHT22;63564;46.840;18.336;2023-07-09T13:21:16;34.28;32.58
75010;DHT22;63564;46.840;18.336;2023-07-09T13:24:29;34.51;35.52
75010;DHT22;63564;46.840;18.336;2023-07-09T13:27:29;36.08;30.38
75010;DHT22;63564;46.840;18.336;2023-07-09T13:30:30;35.95;28.60
75010;DHT22;63564;46.840;18.336;2023-07-09T13:33:32;36.01;30.88
75010;DHT22;63564;46.840;18.336;2023-07-09T13:36:32;35.16;33.63
75010;DHT22;63564;46.840;18.336;2023-07-09T13:39:33;36.42;26.83
75010;DHT22;63564;46.840;18.336;2023-07-09T13:42:33;35.41;26.82
75010;DHT22;63564;46.840;18.336;2023-07-09T13:45:34;37.35;23.64
75010;DHT22;63564;46.840;18.336;2023-07-09T13:48:35;38.78;24.19
75010;DHT22;63564;46.840;18.336;2023-07-09T13:51:36;34.51;28.39
75010;DHT22;63564;46.840;18.336;2023-07-09T13:54:36;35.36;28.12
75010;DHT22;63564;46.840;18.336;2023-07-09T13:57:37;35.88;28.51
75010;DHT22;63564;46.840;18.336;2023-07-09T14:00:39;37.55;28.05
75010;DHT22;63564;46.840;18.336;2023-07-09T14:03:41;36.33;27.69
75010;DHT22;63564;46.840;18.336;2023-07-09T14:06:42;36.60;31.04
75010;DHT22;63564;46.840;18.336;2023-07-09T14:09:43;35.89;28.23
75010;DHT22;63564;46.840;18.336;2023-07-09T14:12:45;38.28;26.48
75010;DHT22;63564;46.840;18.336;2023-07-09T14:15:46;36.57;28.52
75010;DHT22;63564;46.840;18.336;2023-07-09T14:18:47;36.70;28.30
75010;DHT22;63564;46.840;18.336;2023-07-09T14:21:48;37.21;26.40
75010;DHT22;63564;46.840;18.336;2023-07-09T14:24:48;37.89;25.50
75010;DHT22;63564;46.840;18.336;2023-07-09T14:27:50;38.95;25.67
75010;DHT22;63564;46.840;18.336;2023-07-09T14:30:51;36.13;34.16
75010;DHT22;63564;46.840;18.336;2023-07-09T14:33:51;37.59;27.61
75010;DHT22;63564;46.840;18.336;2023-07-09T14:36:54;36.26;27.63
75010;DHT22;63564;46.840;18.336;2023-07-09T14:39:55;38.99;27.27
75010;DHT22;63564;46.840;18.336;2023-07-09T14:42:56;38.87;22.36
75010;DHT22;63564;46.840;18.336;2023-07-09T14:45:56;40.12;22.40
75010;DHT22;63564;46.840;18.336;2023-07-09T14:48:57;36.70;29.01
75010;DHT22;63564;46.840;18.336;2023-07-09T14:51:57;35.09;27.84
75010;DHT22;63564;46.840;18.336;2023-07-09T14:54:58;34.85;30.08
75010;DHT22;63564;46.840;18.336;2023-07-09T14:57:58;32.53;31.66
75010;DHT22;63564;46.840;18.336;2023-07-09T15:01:01;32.06;36.72
75010;DHT22;63564;46.840;18.336;2023-07-09T15:04:18;30.45;32.90
75010;DHT22;63564;46.840;18.336;2023-07-09T15:07:22;30.82;32.65
75010;DHT22;63564;46.840;18.336;2023-07-09T15:10:24;31.20;37.16
75010;DHT22;63564;46.840;18.336;2023-07-09T15:13:35;31.51;35.61
75010;DHT22;63564;46.840;18.336;2023-07-09T15:16:35;31.67;38.56
75010;DHT22;63564;46.840;18.336;2023-07-09T15:19:35;31.39;35.89
75010;DHT22;63564;46.840;18.336;2023-07-09T15:22:36;30.63;38.63
75010;DHT22;63564;46.840;18.336;2023-07-09T15:25:36;30.24;36.03
75010;DHT22;63564;46.840;18.336;2023-07-09T15:28:37;30.60;35.34
75010;DHT22;63564;46.840;18.336;2023-07-09T15:31:37;30.88;35.15
75010;DHT22;63564;46.840;18.336;2023-07-09T15:34:37;30.89;37.43
75010;DHT22;63564;46.840;18.336;2023-07-09T15:37:38;30.03;36.53
75010;DHT22;63564;46.840;18.336;2023-07-09T15:40:38;29.80;38.65
75010;DHT22;63564;46.840;18.336;2023-07-09T15:43:41;29.66;39.24
75010;DHT22;63564;46.840;18.336;2023-07-09T15:46:49;29.50;42.61
75010;DHT22;63564;46.840;18.336;2023-07-09T15:49:50;29.86;39.35
75010;DHT22;63564;46.840;18.336;2023-07-09T15:52:51;30.09;39.19
75010;DHT22;63564;46.840;18.336;2023-07-09T15:55:56;30.33;39.20
75010;DHT22;63564;46.840;18.336;2023-07-09T15:58:58;29.86;42.46
75010;DHT22;63564;46.840;18.336;2023-07-09T16:02:00;29.51;42.28
75010;DHT22;63564;46.840;18.336;2023-07-09T16:05:01;29.34;41.38
75010;DHT22;63564;46.840;18.336;2023-07-09T16:08:01;29.37;41.60
75010;DHT22;63564;46.840;18.336;2023-07-09T16:11:08;29.25;42.85
75010;DHT22;63564;46.840;18.336;2023-07-09T16:17:19;29.30;42.08
75010;DHT22;63564;46.840;18.336;2023-07-09T16:20:28;29.07;47.15
75010;DHT22;63564;46.840;18.336;2023-07-09T16:23:28;28.99;42.49
75010;DHT22;63564;46.840;18.336;2023-07-09T16:26:29;28.89;45.76
75010;DHT22;63564;46.840;18.336;2023-07-09T16:29:31;28.76;43.75
75010;DHT22;63564;46.840;18.336;2023-07-09T16:32:32;28.67;43.41
75010;DHT22;63564;46.840;18.336;2023-07-09T16:35:32;28.67;44.43
75010;DHT22;63564;46.840;18.336;2023-07-09T16:38:33;28.73;44.01
75010;DHT22;63564;46.840;18.336;2023-07-09T16:41:35;28.79;44.31
75010;DHT22;63564;46.840;18.336;2023-07-09T16:44:35;28.86;44.60
75010;DHT22;63564;46.840;18.336;2023-07-09T16:47:36;28.90;45.29
75010;DHT22;63564;46.840;18.336;2023-07-09T16:50:36;28.84;47.04
75010;DHT22;63564;46.840;18.336;2023-07-09T16:53:37;28.69;49.39
75010;DHT22;63564;46.840;18.336;2023-07-09T16:56:37;28.45;48.45
75010;DHT22;63564;46.840;18.336;2023-07-09T16:59:38;28.21;50.09
75010;DHT22;63564;46.840;18.336;2023-07-09T17:02:38;28.02;51.04
75010;DHT22;63564;46.840;18.336;2023-07-09T17:05:39;27.96;50.92
75010;DHT22;63564;46.840;18.336;2023-07-09T17:08:40;27.76;51.01
75010;DHT22;63564;46.840;18.336;2023-07-09T17:11:40;27.60;53.32
75010;DHT22;63564;46.840;18.336;2023-07-09T17:14:41;27.49;53.27
75010;DHT22;63564;46.840;18.336;2023-07-09T17:17:41;27.34;52.79
75010;DHT22;63564;46.840;18.336;2023-07-09T17:20:42;27.32;52.20
75010;DHT22;63564;46.840;18.336;2023-07-09T17:23:42;27.29;52.17
75010;DHT22;63564;46.840;18.336;2023-07-09T17:26:42;27.18;53.24
75010;DHT22;63564;46.840;18.336;2023-07-09T17:29:43;27.08;53.71
75010;DHT22;63564;46.840;18.336;2023-07-09T17:32:43;26.95;54.33
75010;DHT22;63564;46.840;18.336;2023-07-09T17:35:48;26.92;53.36
75010;DHT22;63564;46.840;18.336;2023-07-09T17:38:49;26.81;53.71
75010;DHT22;63564;46.840;18.336;2023-07-09T17:41:50;26.78;52.69
75010;DHT22;63564;46.840;18.336;2023-07-09T17:44:51;26.73;52.17
75010;DHT22;63564;46.840;18.336;2023-07-09T17:47:52;26.74;51.56
75010;DHT22;63564;46.840;18.336;2023-07-09T17:50:53;26.78;50.54
75010;DHT22;63564;46.840;18.336;2023-07-09T17:53:53;26.86;51.37
75010;DHT22;63564;46.840;18.336;2023-07-09T17:56:55;26.78;51.27
75010;DHT22;63564;46.840;18.336;2023-07-09T17:59:56;26.69;51.46
75010;DHT22;63564;46.840;18.336;2023-07-09T18:02:59;26.56;51.91
75010;DHT22;63564;46.840;18.336;2023-07-09T18:06:00;26.42;53.01
75010;DHT22;63564;46.840;18.336;2023-07-09T18:09:01;26.26;54.14
75010;DHT22;63564;46.840;18.336;2023-07-09T18:12:02;26.12;55.13
75010;DHT22;63564;46.840;18.336;2023-07-09T18:15:04;25.81;56.77
75010;DHT22;63564;46.840;18.336;2023-07-09T18:18:05;25.63;57.40
75010;DHT22;63564;46.840;18.336;2023-07-09T18:21:11;25.44;58.30
75010;DHT22;63564;46.840;18.336;2023-07-09T18:24:13;24.48;63.36
75010;DHT22;63564;46.840;18.336;2023-07-09T18:27:16;24.65;61.51
75010;DHT22;63564;46.840;18.336;2023-07-09T18:30:36;24.69;59.26
75010;DHT22;63564;46.840;18.336;2023-07-09T18:33:36;24.72;59.58
75010;DHT22;63564;46.840;18.336;2023-07-09T18:36:37;24.72;59.75
75010;DHT22;63564;46.840;18.336;2023-07-09T18:39:37;24.61;59.28
75010;DHT22;63564;46.840;18.336;2023-07-09T18:42:38;24.53;59.81
75010;DHT22;63564;46.840;18.336;2023-07-09T18:45:39;24.33;60.91
75010;DHT22;63564;46.840;18.336;2023-07-09T18:48:39;24.09;62.22
75010;DHT22;63564;46.840;18.336;2023-07-09T18:51:42;23.99;62.50
75010;DHT22;63564;46.840;18.336;2023-07-09T18:54:45;23.88;63.64
75010;DHT22;63564;46.840;18.336;2023-07-09T18:57:46;23.78;63.47
75010;DHT22;63564;46.840;18.336;2023-07-09T19:00:48;23.82;62.67
75010;DHT22;63564;46.840;18.336;2023-07-09T19:03:48;23.82;62.38
75010;DHT22;63564;46.840;18.336;2023-07-09T19:06:49;23.83;62.31
75010;DHT22;63564;46.840;18.336;2023-07-09T19:09:49;23.68;63.64
75010;DHT22;63564;46.840;18.336;2023-07-09T19:12:54;23.54;64.01
75010;DHT22;63564;46.840;18.336;2023-07-09T19:15:58;23.41;65.88
75010;DHT22;63564;46.840;18.336;2023-07-09T19:19:00;23.37;66.48
75010;DHT22;63564;46.840;18.336;2023-07-09T19:22:01;23.30;67.20
75010;DHT22;63564;46.840;18.336;2023-07-09T19:25:01;23.13;68.84
75010;DHT22;63564;46.840;18.336;2023-07-09T19:28:02;22.76;72.33
75010;DHT22;63564;46.840;18.336;2023-07-09T19:31:03;22.56;73.35